createdAt,value
2023-08-14T00:02:06.384Z,20.35
2023-08-14T00:07:08.640Z,20.28
2023-08-14T00:12:10.866Z,20.30
2023-08-14T00:17:13.083Z,20.27
2023-08-14T00:22:15.548Z,20.23
2023-08-14T00:27:17.899Z,20.21
2023-08-14T00:32:20.299Z,20.19
2023-08-14T00:37:24.410Z,20.25
2023-08-14T00:42:26.568Z,20.17
2023-08-14T00:47:28.770Z,20.25
2023-08-14T00:52:33.336Z,20.25
2023-08-14T00:57:37.067Z,20.29
2023-08-14T01:02:39.977Z,20.23
2023-08-14T01:07:42.133Z,20.19
2023-08-14T01:12:54.616Z,20.34
2023-08-14T01:18:03.082Z,20.35
2023-08-14T01:23:18.790Z,20.35
2023-08-14T01:28:21.752Z,20.34
2023-08-14T01:33:23.971Z,20.40
2023-08-14T01:38:48.665Z,20.72
2023-08-14T01:43:56.245Z,20.64
2023-08-14T01:49:00.686Z,20.63
2023-08-14T01:54:03.032Z,20.57
2023-08-14T01:59:05.185Z,20.50
2023-08-14T02:04:10.332Z,20.57
2023-08-14T02:09:12.653Z,20.62
2023-08-14T02:14:14.771Z,20.64
2023-08-14T02:19:17.301Z,20.61
2023-08-14T02:24:19.520Z,20.57
2023-08-14T02:29:22.464Z,20.51
2023-08-14T02:34:44.204Z,20.73
2023-08-14T02:39:47.147Z,20.37
2023-08-14T02:44:49.706Z,20.15
2023-08-14T02:49:52.249Z,20.02
2023-08-14T02:54:54.473Z,19.93
2023-08-14T02:59:56.690Z,19.87
2023-08-14T03:04:58.905Z,19.88
2023-08-14T03:10:01.157Z,19.87
2023-08-14T03:15:03.844Z,19.93
2023-08-14T03:20:07.464Z,20.01
2023-08-14T03:25:10.010Z,20.04
2023-08-14T03:30:14.095Z,20.15
2023-08-14T03:35:16.423Z,20.22
2023-08-14T03:40:18.825Z,20.29
2023-08-14T03:45:21.558Z,20.34
2023-08-14T03:50:23.876Z,20.33
2023-08-14T03:55:26.121Z,20.39
2023-08-14T04:00:28.349Z,20.42
2023-08-14T04:05:30.554Z,20.39
2023-08-14T04:10:33.360Z,20.32
2023-08-14T04:15:35.552Z,20.23
2023-08-14T04:20:37.753Z,20.19
2023-08-14T04:25:40.037Z,20.26
2023-08-14T04:30:42.469Z,20.33
2023-08-14T04:35:44.818Z,20.35
2023-08-14T04:40:47.061Z,20.28
2023-08-14T04:45:49.569Z,20.25
2023-08-14T04:50:52.374Z,20.10
2023-08-14T04:55:54.826Z,20.14
2023-08-14T05:00:57.542Z,20.16
2023-08-14T05:05:59.785Z,20.08
2023-08-14T05:11:03.260Z,20.22
2023-08-14T05:16:08.866Z,20.26
2023-08-14T05:21:13.153Z,20.46
2023-08-14T05:26:15.393Z,20.54
2023-08-14T05:31:17.649Z,20.80
2023-08-14T05:36:19.858Z,20.79
2023-08-14T05:41:23.068Z,20.76
2023-08-14T05:46:25.700Z,20.53
2023-08-14T05:51:28.017Z,20.40
2023-08-14T05:56:30.178Z,20.28
2023-08-14T06:01:32.499Z,20.35
2023-08-14T06:06:35.028Z,20.44
2023-08-14T06:11:37.157Z,20.58
2023-08-14T06:16:39.375Z,20.69
2023-08-14T06:21:41.797Z,20.74
2023-08-14T06:26:43.926Z,20.73
2023-08-14T06:31:46.116Z,20.94
2023-08-14T06:36:48.308Z,21.23
2023-08-14T06:41:50.594Z,21.63
2023-08-14T06:46:54.696Z,22.02
2023-08-14T06:51:57.004Z,23.23
2023-08-14T06:56:59.677Z,24.21
2023-08-14T07:02:02.430Z,24.46
2023-08-14T07:07:04.589Z,24.38
2023-08-14T07:12:06.999Z,23.99
2023-08-14T07:17:09.300Z,23.42
2023-08-14T07:22:11.529Z,22.93
2023-08-14T07:27:13.628Z,22.60
2023-08-14T07:32:16.174Z,22.52
2023-08-14T07:37:18.671Z,22.91
2023-08-14T07:42:21.202Z,25.51
2023-08-14T07:47:23.974Z,26.68
2023-08-14T07:52:28.716Z,26.51
2023-08-14T07:57:31.025Z,25.97
2023-08-14T08:02:33.325Z,25.56
2023-08-14T08:07:35.663Z,25.10
2023-08-14T08:12:37.997Z,24.49
2023-08-14T08:17:40.650Z,24.05
2023-08-14T08:22:42.946Z,23.84
2023-08-14T08:27:45.092Z,23.60
2023-08-14T08:32:47.361Z,23.43
2023-08-14T08:37:49.525Z,23.63
2023-08-14T08:42:52.702Z,23.87
2023-08-14T08:47:57.817Z,23.91
2023-08-14T08:53:00.502Z,23.73
2023-08-14T08:58:03.425Z,23.52
2023-08-14T09:03:06.016Z,23.45
2023-08-14T09:08:09.912Z,23.22
2023-08-14T09:18:19.234Z,23.26
2023-08-14T09:23:21.634Z,23.39
2023-08-14T09:28:23.773Z,23.18
2023-08-14T09:33:26.088Z,23.35
2023-08-14T09:38:28.627Z,24.26
2023-08-14T09:43:32.475Z,25.97
2023-08-14T09:48:45.902Z,26.38
2023-08-14T09:53:51.826Z,26.17
2023-08-14T09:58:56.090Z,26.73
2023-08-14T10:03:58.741Z,27.10
2023-08-14T10:09:03.709Z,27.49
2023-08-14T10:14:07.651Z,27.15
2023-08-14T10:19:13.835Z,25.94
2023-08-14T10:24:16.700Z,25.18
2023-08-14T10:29:19.157Z,24.68
2023-08-14T10:34:22.716Z,24.70
2023-08-14T10:39:36.143Z,24.72
2023-08-14T10:44:38.637Z,24.31
2023-08-14T10:49:49.780Z,24.49
2023-08-14T10:54:53.379Z,24.19
2023-08-14T10:59:57.659Z,23.99
2023-08-14T11:05:13.623Z,23.91
2023-08-14T11:10:16.362Z,23.60
2023-08-14T11:15:21.526Z,23.78
2023-08-14T11:20:26.454Z,24.00
2023-08-14T11:25:28.892Z,25.41
2023-08-14T11:30:36.007Z,27.50
2023-08-14T11:35:38.334Z,27.19
2023-08-14T11:40:43.742Z,26.83
2023-08-14T11:45:46.111Z,26.00
2023-08-14T11:50:48.784Z,25.21
2023-08-14T11:55:51.412Z,24.59
2023-08-14T12:00:53.954Z,24.35
2023-08-14T12:06:05.184Z,24.61
2023-08-14T12:11:08.485Z,24.52
2023-08-14T12:16:17.781Z,24.67
2023-08-14T12:21:21.536Z,24.79
2023-08-14T12:26:24.018Z,24.72
2023-08-14T12:31:26.262Z,24.86
2023-08-14T12:36:28.572Z,24.94
2023-08-14T12:41:31.215Z,25.04
2023-08-14T12:46:33.594Z,25.26
2023-08-14T12:51:36.960Z,25.22
2023-08-14T12:56:39.435Z,25.04
2023-08-14T13:01:47.267Z,24.82
2023-08-14T13:06:51.030Z,24.99
2023-08-14T13:11:53.329Z,25.32
2023-08-14T13:16:55.667Z,25.49
2023-08-14T13:21:58.015Z,25.49
2023-08-14T13:27:08.625Z,25.47
2023-08-14T13:32:12.059Z,25.52
2023-08-14T13:37:14.204Z,25.61
2023-08-14T13:42:16.621Z,25.74
2023-08-14T13:47:19.164Z,25.97
2023-08-14T13:52:21.533Z,26.11
2023-08-14T13:57:23.807Z,26.11
2023-08-14T14:02:26.018Z,25.96
2023-08-14T14:07:32.077Z,25.95
2023-08-14T14:12:39.230Z,25.92
2023-08-14T14:17:41.713Z,25.95
2023-08-14T14:22:44.246Z,25.97
2023-08-14T14:27:46.494Z,25.80
2023-08-14T14:32:48.691Z,25.73
2023-08-14T14:37:50.826Z,25.68
2023-08-14T14:42:53.194Z,25.78
2023-08-14T14:47:55.375Z,25.68
2023-08-14T14:52:58.230Z,25.59
2023-08-14T14:58:00.386Z,25.41
2023-08-14T15:03:02.952Z,25.37
2023-08-14T15:08:05.318Z,25.42
2023-08-14T15:13:07.582Z,25.34
2023-08-14T15:18:10.217Z,25.18
2023-08-14T15:23:12.618Z,25.15
2023-08-14T15:28:14.853Z,25.16
2023-08-14T15:33:16.990Z,25.21
2023-08-14T15:38:19.429Z,25.24
2023-08-14T15:43:21.924Z,25.32
2023-08-14T15:48:24.131Z,25.27
2023-08-14T15:53:26.352Z,25.22
2023-08-14T15:58:28.556Z,25.09
2023-08-14T16:03:31.197Z,24.91
2023-08-14T16:08:33.512Z,24.73
2023-08-14T16:13:35.650Z,24.74
2023-08-14T16:18:38.138Z,24.67
2023-08-14T16:23:40.376Z,24.48
2023-08-14T16:28:42.653Z,24.30
2023-08-14T16:33:46.596Z,24.10
2023-08-14T16:38:48.809Z,23.94
2023-08-14T16:43:51.074Z,23.79
2023-08-14T16:48:53.638Z,23.54
2023-08-14T16:53:56.361Z,23.47
2023-08-14T16:58:58.586Z,23.34
2023-08-14T17:04:00.939Z,23.24
2023-08-14T17:09:03.210Z,23.13
2023-08-14T17:14:05.516Z,23.03
2023-08-14T17:19:07.739Z,22.95
2023-08-14T17:24:10.175Z,22.86
2023-08-14T17:29:12.386Z,22.75
2023-08-14T17:34:15.496Z,22.78
2023-08-14T17:39:17.796Z,22.73
2023-08-14T17:44:19.910Z,22.67
2023-08-14T17:49:22.124Z,22.56
2023-08-14T17:54:24.392Z,22.45
2023-08-14T17:59:26.552Z,22.59
2023-08-14T18:04:28.773Z,22.53
2023-08-14T18:09:30.840Z,22.49
2023-08-14T18:14:32.983Z,22.51
2023-08-14T18:19:35.144Z,22.48
2023-08-14T18:24:37.447Z,22.43
2023-08-14T18:29:39.654Z,22.39
2023-08-14T18:34:43.983Z,22.34
2023-08-14T18:39:46.200Z,22.25
2023-08-14T18:44:48.296Z,22.28
2023-08-14T18:49:50.471Z,22.26
2023-08-14T18:54:52.549Z,22.17
2023-08-14T18:59:54.685Z,22.11
2023-08-14T19:04:57.210Z,22.20
2023-08-14T19:09:59.551Z,22.18
2023-08-14T19:15:01.666Z,22.18
2023-08-14T19:20:06.152Z,22.16
2023-08-14T19:25:09.752Z,22.18
2023-08-14T19:30:12.538Z,22.18
2023-08-14T19:35:14.639Z,22.10
2023-08-14T19:40:16.825Z,22.16
2023-08-14T19:45:18.997Z,22.19
2023-08-14T19:50:21.227Z,22.15
2023-08-14T19:55:23.493Z,22.09
2023-08-14T20:00:26.282Z,22.14
2023-08-14T20:05:28.706Z,22.09
2023-08-14T20:10:30.817Z,22.09
2023-08-14T20:15:35.942Z,22.13
2023-08-14T20:20:41.909Z,22.14
2023-08-14T20:25:46.368Z,21.94
2023-08-14T20:30:48.622Z,21.94
2023-08-14T20:35:50.919Z,21.91
2023-08-14T20:40:55.687Z,21.86
2023-08-14T20:45:57.965Z,21.80
2023-08-14T20:51:03.086Z,21.84
2023-08-14T20:56:05.533Z,21.70
2023-08-14T21:01:07.612Z,21.61
2023-08-14T21:06:09.762Z,21.39
2023-08-14T21:11:15.183Z,21.47
2023-08-14T21:16:17.508Z,21.39
2023-08-14T21:21:20.702Z,21.32
2023-08-14T21:26:22.784Z,21.26
2023-08-14T21:31:24.942Z,21.19
2023-08-14T21:36:27.237Z,21.14
2023-08-14T21:41:29.409Z,21.00
2023-08-14T21:46:34.251Z,21.04
2023-08-14T21:51:37.453Z,21.02
2023-08-14T21:56:39.772Z,20.97
2023-08-14T22:01:43.983Z,20.93
2023-08-14T22:06:46.400Z,20.84
2023-08-14T22:11:48.566Z,20.88
2023-08-14T22:16:51.112Z,20.84
2023-08-14T22:21:53.203Z,20.82
2023-08-14T22:26:55.404Z,20.77
2023-08-14T22:31:57.605Z,20.72
2023-08-14T22:36:59.760Z,20.66
2023-08-14T22:42:01.835Z,20.64
2023-08-14T22:47:03.961Z,20.53
2023-08-14T22:52:06.255Z,20.50
2023-08-14T22:57:08.483Z,20.48
2023-08-14T23:02:10.771Z,20.44
2023-08-14T23:07:12.842Z,20.39
2023-08-14T23:12:14.914Z,20.37
2023-08-14T23:17:17.311Z,20.32
2023-08-14T23:22:19.437Z,20.28
2023-08-14T23:27:21.800Z,20.19
2023-08-14T23:32:24.050Z,20.27
2023-08-14T23:37:26.878Z,20.25
2023-08-14T23:42:29.060Z,20.21
2023-08-14T23:47:31.220Z,20.12
2023-08-14T23:52:33.489Z,20.17
2023-08-14T23:57:35.583Z,20.12
